Camas, Washington
Current Conditions -  °F | °C
As of 2:53 PM on Saturday 25 Oct 2014 (Local Time) from KTTD Reporting Station
Light Rain Light Rain  
Wind Chill: 18°   Ceiling: 5000
Heat Index: 18°   Visibility: 10mi
Dew Point: 11°   Wind: 14mph
Humidity: 61%   Direction: 180°S
Pressure: 29.41"   Gusts: 21mph
Location:  45.59°N, 122.4°W
Report Text: KTTD 252153Z 18012G18KT 10SM -RA BKN050 BKN065 BKN090 18/11 A2941 RMK AO2 PK WND 19029/2130 WSHFT 2057 RAB51 SLP960 P0000 T01830106
Loading
Personal Weather Stations






























Interactive Weather Map
Tropical Storm Tracking
New forecast layout! Learn more

10-Day Weather Forecast

Advertisements
Track Severe Weather on mobile